Terminal Aerodrome Forecast
Issued by NWS

Home | Current Version | Previous Version | Text Only | Print | Product List | Glossary On
Versions: 1 2 3 4 5 6 7 8 9 10 11 12
440
FTUS41 KPBZ 292335
TAFBVI
TAF
KBVI 292335Z 3000/3024 17004KT P6SM BKN100
      TEMPO 3009/3012 5SM BR
     FM301400 24003KT P6SM SCT040
      AMD NOT SKED=

USA.gov is the U.S. government's official web portal to all federal, state and local government web resources and services.